sensor_id;sensor_type;location;lat;lon;timestamp;P1;durP1;ratioP1;P2;durP2;ratioP2
14139;SDS011;7150;53.514;9.988;2023-12-20T00:01:39;5.23;;;1.63;;
14139;SDS011;7150;53.514;9.988;2023-12-20T00:04:05;7.93;;;1.90;;
14139;SDS011;7150;53.514;9.988;2023-12-20T00:06:31;8.57;;;1.97;;
14139;SDS011;7150;53.514;9.988;2023-12-20T00:08:57;4.60;;;1.70;;
14139;SDS011;7150;53.514;9.988;2023-12-20T00:11:25;6.23;;;1.80;;
14139;SDS011;7150;53.514;9.988;2023-12-20T00:13:50;9.20;;;2.20;;
14139;SDS011;7150;53.514;9.988;2023-12-20T00:16:16;10.00;;;2.10;;
14139;SDS011;7150;53.514;9.988;2023-12-20T00:18:42;6.70;;;1.77;;
14139;SDS011;7150;53.514;9.988;2023-12-20T00:21:07;8.73;;;2.17;;
14139;SDS011;7150;53.514;9.988;2023-12-20T00:23:33;14.40;;;2.60;;
14139;SDS011;7150;53.514;9.988;2023-12-20T00:25:59;6.33;;;2.03;;
14139;SDS011;7150;53.514;9.988;2023-12-20T00:28:25;3.50;;;1.73;;
14139;SDS011;7150;53.514;9.988;2023-12-20T00:30:51;7.30;;;1.53;;
14139;SDS011;7150;53.514;9.988;2023-12-20T00:33:16;12.70;;;2.33;;
14139;SDS011;7150;53.514;9.988;2023-12-20T00:35:42;9.33;;;2.20;;
14139;SDS011;7150;53.514;9.988;2023-12-20T00:38:07;9.30;;;1.70;;
14139;SDS011;7150;53.514;9.988;2023-12-20T00:40:34;5.63;;;1.80;;
14139;SDS011;7150;53.514;9.988;2023-12-20T00:42:59;5.83;;;1.47;;
14139;SDS011;7150;53.514;9.988;2023-12-20T00:45:25;11.90;;;2.23;;
14139;SDS011;7150;53.514;9.988;2023-12-20T00:47:50;9.33;;;2.10;;
14139;SDS011;7150;53.514;9.988;2023-12-20T00:50:16;11.90;;;2.10;;
14139;SDS011;7150;53.514;9.988;2023-12-20T00:52:41;7.53;;;1.60;;
14139;SDS011;7150;53.514;9.988;2023-12-20T00:55:07;9.27;;;2.10;;
14139;SDS011;7150;53.514;9.988;2023-12-20T00:57:32;10.83;;;2.10;;
14139;SDS011;7150;53.514;9.988;2023-12-20T00:59:59;6.27;;;2.17;;
14139;SDS011;7150;53.514;9.988;2023-12-20T01:02:24;10.97;;;2.20;;
14139;SDS011;7150;53.514;9.988;2023-12-20T01:04:50;11.77;;;2.23;;
14139;SDS011;7150;53.514;9.988;2023-12-20T01:07:15;7.43;;;1.77;;
14139;SDS011;7150;53.514;9.988;2023-12-20T01:09:41;9.27;;;2.10;;
14139;SDS011;7150;53.514;9.988;2023-12-20T01:12:06;12.37;;;2.83;;
14139;SDS011;7150;53.514;9.988;2023-12-20T01:14:32;10.40;;;2.23;;
14139;SDS011;7150;53.514;9.988;2023-12-20T01:16:57;11.37;;;2.03;;
14139;SDS011;7150;53.514;9.988;2023-12-20T01:19:24;6.13;;;2.07;;
14139;SDS011;7150;53.514;9.988;2023-12-20T01:21:50;7.93;;;1.97;;
14139;SDS011;7150;53.514;9.988;2023-12-20T01:24:15;9.93;;;2.07;;
14139;SDS011;7150;53.514;9.988;2023-12-20T01:26:41;5.60;;;2.07;;
14139;SDS011;7150;53.514;9.988;2023-12-20T01:29:06;4.30;;;1.57;;
14139;SDS011;7150;53.514;9.988;2023-12-20T01:31:32;12.63;;;2.47;;
14139;SDS011;7150;53.514;9.988;2023-12-20T01:33:57;12.83;;;1.90;;
14139;SDS011;7150;53.514;9.988;2023-12-20T01:36:23;9.67;;;2.33;;
14139;SDS011;7150;53.514;9.988;2023-12-20T01:38:48;6.60;;;1.70;;
14139;SDS011;7150;53.514;9.988;2023-12-20T01:41:14;8.60;;;1.93;;
14139;SDS011;7150;53.514;9.988;2023-12-20T01:43:40;8.00;;;2.00;;
14139;SDS011;7150;53.514;9.988;2023-12-20T01:46:05;9.27;;;1.90;;
14139;SDS011;7150;53.514;9.988;2023-12-20T01:48:31;7.40;;;1.80;;
14139;SDS011;7150;53.514;9.988;2023-12-20T01:50:57;7.00;;;1.80;;
14139;SDS011;7150;53.514;9.988;2023-12-20T01:53:25;8.90;;;1.73;;
14139;SDS011;7150;53.514;9.988;2023-12-20T01:55:52;8.60;;;2.13;;
14139;SDS011;7150;53.514;9.988;2023-12-20T01:58:21;9.00;;;2.23;;
14139;SDS011;7150;53.514;9.988;2023-12-20T02:00:48;12.67;;;1.70;;
14139;SDS011;7150;53.514;9.988;2023-12-20T02:03:14;3.33;;;1.90;;
14139;SDS011;7150;53.514;9.988;2023-12-20T02:05:39;9.30;;;2.20;;
14139;SDS011;7150;53.514;9.988;2023-12-20T02:08:05;5.50;;;1.60;;
14139;SDS011;7150;53.514;9.988;2023-12-20T02:10:31;9.57;;;2.03;;
14139;SDS011;7150;53.514;9.988;2023-12-20T02:12:57;7.70;;;2.00;;
14139;SDS011;7150;53.514;9.988;2023-12-20T02:15:23;10.87;;;1.93;;
14139;SDS011;7150;53.514;9.988;2023-12-20T02:17:49;7.23;;;1.73;;
14139;SDS011;7150;53.514;9.988;2023-12-20T02:20:15;9.27;;;2.10;;
14139;SDS011;7150;53.514;9.988;2023-12-20T02:22:40;10.33;;;2.13;;
14139;SDS011;7150;53.514;9.988;2023-12-20T02:25:06;7.60;;;2.00;;
14139;SDS011;7150;53.514;9.988;2023-12-20T02:27:32;7.73;;;2.17;;
14139;SDS011;7150;53.514;9.988;2023-12-20T02:29:57;9.13;;;1.60;;
14139;SDS011;7150;53.514;9.988;2023-12-20T02:32:24;7.17;;;2.13;;
14139;SDS011;7150;53.514;9.988;2023-12-20T02:34:53;6.63;;;2.23;;
14139;SDS011;7150;53.514;9.988;2023-12-20T02:37:19;5.03;;;1.80;;
14139;SDS011;7150;53.514;9.988;2023-12-20T02:39:45;5.60;;;1.83;;
14139;SDS011;7150;53.514;9.988;2023-12-20T02:42:10;6.37;;;2.17;;
14139;SDS011;7150;53.514;9.988;2023-12-20T02:44:36;6.10;;;2.00;;
14139;SDS011;7150;53.514;9.988;2023-12-20T02:47:02;11.47;;;2.77;;
14139;SDS011;7150;53.514;9.988;2023-12-20T02:49:27;9.23;;;1.90;;
14139;SDS011;7150;53.514;9.988;2023-12-20T02:51:53;8.53;;;1.90;;
14139;SDS011;7150;53.514;9.988;2023-12-20T02:54:18;10.20;;;2.43;;
14139;SDS011;7150;53.514;9.988;2023-12-20T02:56:44;7.77;;;2.10;;
14139;SDS011;7150;53.514;9.988;2023-12-20T02:59:09;6.93;;;2.00;;
14139;SDS011;7150;53.514;9.988;2023-12-20T03:01:35;10.13;;;2.50;;
14139;SDS011;7150;53.514;9.988;2023-12-20T03:04:07;7.13;;;1.93;;
14139;SDS011;7150;53.514;9.988;2023-12-20T03:06:33;6.03;;;2.27;;
14139;SDS011;7150;53.514;9.988;2023-12-20T03:08:58;5.40;;;1.60;;
14139;SDS011;7150;53.514;9.988;2023-12-20T03:11:26;7.63;;;2.10;;
14139;SDS011;7150;53.514;9.988;2023-12-20T03:13:52;7.63;;;1.90;;
14139;SDS011;7150;53.514;9.988;2023-12-20T03:16:18;8.37;;;2.00;;
14139;SDS011;7150;53.514;9.988;2023-12-20T03:18:43;8.20;;;2.40;;
14139;SDS011;7150;53.514;9.988;2023-12-20T03:21:09;8.40;;;2.70;;
14139;SDS011;7150;53.514;9.988;2023-12-20T03:23:34;10.60;;;2.23;;
14139;SDS011;7150;53.514;9.988;2023-12-20T03:26:00;5.67;;;2.00;;
14139;SDS011;7150;53.514;9.988;2023-12-20T03:28:26;7.43;;;1.87;;
14139;SDS011;7150;53.514;9.988;2023-12-20T03:30:52;9.40;;;2.30;;
14139;SDS011;7150;53.514;9.988;2023-12-20T03:33:18;7.23;;;1.93;;
14139;SDS011;7150;53.514;9.988;2023-12-20T03:35:43;8.27;;;2.27;;
14139;SDS011;7150;53.514;9.988;2023-12-20T03:38:09;7.53;;;1.87;;
14139;SDS011;7150;53.514;9.988;2023-12-20T03:40:35;7.87;;;2.00;;
14139;SDS011;7150;53.514;9.988;2023-12-20T03:43:00;6.63;;;1.83;;
14139;SDS011;7150;53.514;9.988;2023-12-20T03:45:26;7.50;;;2.43;;
14139;SDS011;7150;53.514;9.988;2023-12-20T03:47:52;7.40;;;1.77;;
14139;SDS011;7150;53.514;9.988;2023-12-20T03:50:24;5.13;;;1.70;;
14139;SDS011;7150;53.514;9.988;2023-12-20T03:52:50;6.90;;;1.70;;
14139;SDS011;7150;53.514;9.988;2023-12-20T03:55:15;10.77;;;2.10;;
14139;SDS011;7150;53.514;9.988;2023-12-20T03:57:41;8.80;;;2.10;;
14139;SDS011;7150;53.514;9.988;2023-12-20T04:00:07;6.37;;;1.90;;
14139;SDS011;7150;53.514;9.988;2023-12-20T04:02:36;6.90;;;1.87;;
14139;SDS011;7150;53.514;9.988;2023-12-20T04:05:02;6.63;;;1.50;;
14139;SDS011;7150;53.514;9.988;2023-12-20T04:07:28;10.17;;;2.33;;
14139;SDS011;7150;53.514;9.988;2023-12-20T04:09:54;9.23;;;2.10;;
14139;SDS011;7150;53.514;9.988;2023-12-20T04:12:20;6.57;;;1.80;;
14139;SDS011;7150;53.514;9.988;2023-12-20T04:14:45;11.80;;;2.30;;
14139;SDS011;7150;53.514;9.988;2023-12-20T04:17:11;7.63;;;1.80;;
14139;SDS011;7150;53.514;9.988;2023-12-20T04:19:36;7.70;;;2.00;;
14139;SDS011;7150;53.514;9.988;2023-12-20T04:22:02;10.70;;;1.90;;
14139;SDS011;7150;53.514;9.988;2023-12-20T04:24:28;7.97;;;1.97;;
14139;SDS011;7150;53.514;9.988;2023-12-20T04:26:53;7.93;;;1.90;;
14139;SDS011;7150;53.514;9.988;2023-12-20T04:29:19;12.53;;;2.10;;
14139;SDS011;7150;53.514;9.988;2023-12-20T04:31:44;8.50;;;2.37;;
14139;SDS011;7150;53.514;9.988;2023-12-20T04:34:10;7.60;;;1.90;;
14139;SDS011;7150;53.514;9.988;2023-12-20T04:36:35;5.07;;;1.80;;
14139;SDS011;7150;53.514;9.988;2023-12-20T04:39:01;12.10;;;1.77;;
14139;SDS011;7150;53.514;9.988;2023-12-20T04:41:26;4.27;;;1.77;;
14139;SDS011;7150;53.514;9.988;2023-12-20T04:43:52;7.80;;;2.20;;
14139;SDS011;7150;53.514;9.988;2023-12-20T04:46:18;8.63;;;1.83;;
14139;SDS011;7150;53.514;9.988;2023-12-20T04:48:43;10.07;;;2.17;;
14139;SDS011;7150;53.514;9.988;2023-12-20T04:51:09;7.77;;;2.13;;
14139;SDS011;7150;53.514;9.988;2023-12-20T04:53:34;11.53;;;2.00;;
14139;SDS011;7150;53.514;9.988;2023-12-20T04:56:00;10.97;;;2.57;;
14139;SDS011;7150;53.514;9.988;2023-12-20T04:58:25;6.07;;;2.20;;
14139;SDS011;7150;53.514;9.988;2023-12-20T05:00:51;9.80;;;2.43;;
14139;SDS011;7150;53.514;9.988;2023-12-20T05:03:17;7.50;;;2.10;;
14139;SDS011;7150;53.514;9.988;2023-12-20T05:05:42;7.73;;;2.13;;
14139;SDS011;7150;53.514;9.988;2023-12-20T05:08:08;9.67;;;2.43;;
14139;SDS011;7150;53.514;9.988;2023-12-20T05:10:33;11.57;;;2.60;;
14139;SDS011;7150;53.514;9.988;2023-12-20T05:12:59;8.53;;;2.33;;
14139;SDS011;7150;53.514;9.988;2023-12-20T05:15:25;11.77;;;2.43;;
14139;SDS011;7150;53.514;9.988;2023-12-20T05:17:50;10.83;;;2.43;;
14139;SDS011;7150;53.514;9.988;2023-12-20T05:20:16;10.50;;;2.20;;
14139;SDS011;7150;53.514;9.988;2023-12-20T05:22:41;9.40;;;2.57;;
14139;SDS011;7150;53.514;9.988;2023-12-20T05:25:07;8.23;;;2.20;;
14139;SDS011;7150;53.514;9.988;2023-12-20T05:27:32;13.53;;;3.53;;
14139;SDS011;7150;53.514;9.988;2023-12-20T05:29:59;6.67;;;2.30;;
14139;SDS011;7150;53.514;9.988;2023-12-20T05:32:24;11.90;;;2.43;;
14139;SDS011;7150;53.514;9.988;2023-12-20T05:34:50;13.87;;;2.47;;
14139;SDS011;7150;53.514;9.988;2023-12-20T05:37:15;7.97;;;2.77;;
14139;SDS011;7150;53.514;9.988;2023-12-20T05:39:41;10.13;;;2.70;;
14139;SDS011;7150;53.514;9.988;2023-12-20T05:42:06;12.07;;;3.27;;
14139;SDS011;7150;53.514;9.988;2023-12-20T05:44:32;8.60;;;2.13;;
14139;SDS011;7150;53.514;9.988;2023-12-20T05:46:57;11.97;;;2.87;;
14139;SDS011;7150;53.514;9.988;2023-12-20T05:49:23;8.23;;;2.37;;
14139;SDS011;7150;53.514;9.988;2023-12-20T05:51:48;8.93;;;2.20;;
14139;SDS011;7150;53.514;9.988;2023-12-20T05:54:15;10.30;;;3.10;;
14139;SDS011;7150;53.514;9.988;2023-12-20T05:56:41;10.13;;;2.80;;
14139;SDS011;7150;53.514;9.988;2023-12-20T05:59:07;11.30;;;2.50;;
14139;SDS011;7150;53.514;9.988;2023-12-20T06:01:32;10.53;;;2.43;;
14139;SDS011;7150;53.514;9.988;2023-12-20T06:03:57;7.00;;;2.30;;
14139;SDS011;7150;53.514;9.988;2023-12-20T06:06:23;10.47;;;2.97;;
14139;SDS011;7150;53.514;9.988;2023-12-20T06:08:49;4.60;;;2.10;;
14139;SDS011;7150;53.514;9.988;2023-12-20T06:11:14;7.43;;;2.30;;
14139;SDS011;7150;53.514;9.988;2023-12-20T06:13:40;8.73;;;2.20;;
14139;SDS011;7150;53.514;9.988;2023-12-20T06:16:05;6.53;;;1.87;;
14139;SDS011;7150;53.514;9.988;2023-12-20T06:18:34;9.17;;;2.50;;
14139;SDS011;7150;53.514;9.988;2023-12-20T06:21:01;12.77;;;3.33;;
14139;SDS011;7150;53.514;9.988;2023-12-20T06:23:27;11.50;;;3.07;;
14139;SDS011;7150;53.514;9.988;2023-12-20T06:25:53;7.63;;;2.17;;
14139;SDS011;7150;53.514;9.988;2023-12-20T06:28:18;10.03;;;2.67;;
14139;SDS011;7150;53.514;9.988;2023-12-20T06:30:44;9.70;;;2.60;;
14139;SDS011;7150;53.514;9.988;2023-12-20T06:33:10;14.57;;;2.80;;
14139;SDS011;7150;53.514;9.988;2023-12-20T06:35:36;11.23;;;2.30;;
14139;SDS011;7150;53.514;9.988;2023-12-20T06:38:02;7.13;;;2.00;;
14139;SDS011;7150;53.514;9.988;2023-12-20T06:40:27;6.07;;;1.77;;
14139;SDS011;7150;53.514;9.988;2023-12-20T06:42:53;11.87;;;2.47;;
14139;SDS011;7150;53.514;9.988;2023-12-20T06:45:19;10.30;;;2.10;;
14139;SDS011;7150;53.514;9.988;2023-12-20T06:47:44;10.37;;;2.57;;
14139;SDS011;7150;53.514;9.988;2023-12-20T06:50:10;7.00;;;1.93;;
14139;SDS011;7150;53.514;9.988;2023-12-20T06:52:35;9.87;;;2.57;;
14139;SDS011;7150;53.514;9.988;2023-12-20T06:55:01;9.30;;;2.03;;
14139;SDS011;7150;53.514;9.988;2023-12-20T06:57:26;8.93;;;2.23;;
14139;SDS011;7150;53.514;9.988;2023-12-20T06:59:52;5.90;;;2.20;;
14139;SDS011;7150;53.514;9.988;2023-12-20T07:02:18;7.17;;;2.60;;
14139;SDS011;7150;53.514;9.988;2023-12-20T07:04:43;11.83;;;2.57;;
14139;SDS011;7150;53.514;9.988;2023-12-20T07:07:09;11.47;;;2.70;;
14139;SDS011;7150;53.514;9.988;2023-12-20T07:09:35;10.97;;;2.17;;
14139;SDS011;7150;53.514;9.988;2023-12-20T07:12:00;9.70;;;2.20;;
14139;SDS011;7150;53.514;9.988;2023-12-20T07:14:27;11.70;;;2.43;;
14139;SDS011;7150;53.514;9.988;2023-12-20T07:16:53;12.87;;;2.43;;
14139;SDS011;7150;53.514;9.988;2023-12-20T07:19:18;10.17;;;2.60;;
14139;SDS011;7150;53.514;9.988;2023-12-20T07:21:44;9.87;;;2.40;;
14139;SDS011;7150;53.514;9.988;2023-12-20T07:24:09;12.33;;;2.37;;
14139;SDS011;7150;53.514;9.988;2023-12-20T07:26:35;13.40;;;2.70;;
14139;SDS011;7150;53.514;9.988;2023-12-20T07:29:02;9.33;;;2.60;;
14139;SDS011;7150;53.514;9.988;2023-12-20T07:31:29;10.77;;;2.67;;
14139;SDS011;7150;53.514;9.988;2023-12-20T07:33:54;10.27;;;2.70;;
14139;SDS011;7150;53.514;9.988;2023-12-20T07:36:20;14.23;;;2.47;;
14139;SDS011;7150;53.514;9.988;2023-12-20T07:38:46;8.83;;;2.40;;
14139;SDS011;7150;53.514;9.988;2023-12-20T07:41:12;8.73;;;2.80;;
14139;SDS011;7150;53.514;9.988;2023-12-20T07:43:38;10.20;;;2.47;;
14139;SDS011;7150;53.514;9.988;2023-12-20T07:46:07;11.53;;;2.70;;
14139;SDS011;7150;53.514;9.988;2023-12-20T07:48:36;10.07;;;3.23;;
14139;SDS011;7150;53.514;9.988;2023-12-20T07:51:02;15.30;;;2.73;;
14139;SDS011;7150;53.514;9.988;2023-12-20T07:53:29;11.37;;;3.30;;
14139;SDS011;7150;53.514;9.988;2023-12-20T07:55:55;16.57;;;3.03;;
14139;SDS011;7150;53.514;9.988;2023-12-20T07:58:20;9.73;;;3.00;;
14139;SDS011;7150;53.514;9.988;2023-12-20T08:00:46;12.20;;;2.70;;
14139;SDS011;7150;53.514;9.988;2023-12-20T08:03:11;9.73;;;2.80;;
14139;SDS011;7150;53.514;9.988;2023-12-20T08:05:37;12.57;;;2.73;;
14139;SDS011;7150;53.514;9.988;2023-12-20T08:08:05;13.00;;;2.40;;
14139;SDS011;7150;53.514;9.988;2023-12-20T08:10:31;17.63;;;3.03;;
14139;SDS011;7150;53.514;9.988;2023-12-20T08:12:56;13.60;;;2.90;;
14139;SDS011;7150;53.514;9.988;2023-12-20T08:15:22;8.90;;;2.47;;
14139;SDS011;7150;53.514;9.988;2023-12-20T08:17:48;13.27;;;3.10;;
14139;SDS011;7150;53.514;9.988;2023-12-20T08:20:15;8.60;;;2.67;;
14139;SDS011;7150;53.514;9.988;2023-12-20T08:22:41;13.57;;;3.03;;
14139;SDS011;7150;53.514;9.988;2023-12-20T08:25:07;10.27;;;2.87;;
14139;SDS011;7150;53.514;9.988;2023-12-20T08:27:33;12.47;;;3.67;;
14139;SDS011;7150;53.514;9.988;2023-12-20T08:30:01;18.00;;;3.50;;
14139;SDS011;7150;53.514;9.988;2023-12-20T08:32:27;7.97;;;2.37;;
14139;SDS011;7150;53.514;9.988;2023-12-20T08:34:53;10.93;;;2.60;;
14139;SDS011;7150;53.514;9.988;2023-12-20T08:37:19;13.17;;;2.77;;
14139;SDS011;7150;53.514;9.988;2023-12-20T08:39:44;12.57;;;2.60;;
14139;SDS011;7150;53.514;9.988;2023-12-20T08:42:10;11.93;;;2.70;;
14139;SDS011;7150;53.514;9.988;2023-12-20T08:44:35;13.93;;;2.67;;
14139;SDS011;7150;53.514;9.988;2023-12-20T08:47:01;12.30;;;2.90;;
14139;SDS011;7150;53.514;9.988;2023-12-20T08:49:26;14.73;;;2.97;;
14139;SDS011;7150;53.514;9.988;2023-12-20T08:51:53;10.40;;;2.63;;
14139;SDS011;7150;53.514;9.988;2023-12-20T08:54:18;10.57;;;3.33;;
14139;SDS011;7150;53.514;9.988;2023-12-20T08:56:44;12.80;;;2.37;;
14139;SDS011;7150;53.514;9.988;2023-12-20T08:59:11;11.33;;;2.80;;
14139;SDS011;7150;53.514;9.988;2023-12-20T09:01:37;11.43;;;3.20;;
14139;SDS011;7150;53.514;9.988;2023-12-20T09:04:02;11.30;;;3.23;;
14139;SDS011;7150;53.514;9.988;2023-12-20T09:06:28;10.37;;;2.23;;
14139;SDS011;7150;53.514;9.988;2023-12-20T09:08:53;10.60;;;2.83;;
14139;SDS011;7150;53.514;9.988;2023-12-20T09:11:19;8.87;;;2.70;;
14139;SDS011;7150;53.514;9.988;2023-12-20T09:13:44;8.63;;;2.43;;
14139;SDS011;7150;53.514;9.988;2023-12-20T09:16:10;7.97;;;2.40;;
14139;SDS011;7150;53.514;9.988;2023-12-20T09:18:35;10.60;;;2.80;;
14139;SDS011;7150;53.514;9.988;2023-12-20T09:21:01;9.87;;;2.70;;
14139;SDS011;7150;53.514;9.988;2023-12-20T09:23:27;6.47;;;1.87;;
14139;SDS011;7150;53.514;9.988;2023-12-20T09:25:52;6.73;;;2.10;;
14139;SDS011;7150;53.514;9.988;2023-12-20T09:28:18;7.03;;;1.93;;
14139;SDS011;7150;53.514;9.988;2023-12-20T09:30:44;6.17;;;1.87;;
14139;SDS011;7150;53.514;9.988;2023-12-20T09:33:11;4.37;;;1.50;;
14139;SDS011;7150;53.514;9.988;2023-12-20T09:35:36;3.40;;;0.93;;
14139;SDS011;7150;53.514;9.988;2023-12-20T09:38:02;3.60;;;1.10;;
14139;SDS011;7150;53.514;9.988;2023-12-20T09:40:28;4.50;;;1.33;;
14139;SDS011;7150;53.514;9.988;2023-12-20T09:43:08;3.67;;;1.53;;
14139;SDS011;7150;53.514;9.988;2023-12-20T09:45:38;4.43;;;1.33;;
14139;SDS011;7150;53.514;9.988;2023-12-20T09:48:05;2.97;;;1.00;;
14139;SDS011;7150;53.514;9.988;2023-12-20T09:50:32;1.77;;;1.07;;
14139;SDS011;7150;53.514;9.988;2023-12-20T09:52:58;1.63;;;1.07;;
14139;SDS011;7150;53.514;9.988;2023-12-20T09:55:25;2.53;;;1.20;;
14139;SDS011;7150;53.514;9.988;2023-12-20T09:57:53;3.80;;;1.30;;
14139;SDS011;7150;53.514;9.988;2023-12-20T10:00:18;2.73;;;1.20;;
14139;SDS011;7150;53.514;9.988;2023-12-20T10:03:06;1.47;;;1.10;;
14139;SDS011;7150;53.514;9.988;2023-12-20T10:05:31;3.03;;;0.77;;
14139;SDS011;7150;53.514;9.988;2023-12-20T10:07:58;1.83;;;0.80;;
14139;SDS011;7150;53.514;9.988;2023-12-20T10:10:24;3.77;;;0.80;;
14139;SDS011;7150;53.514;9.988;2023-12-20T10:15:34;2.07;;;0.90;;
14139;SDS011;7150;53.514;9.988;2023-12-20T10:18:01;1.57;;;1.20;;
14139;SDS011;7150;53.514;9.988;2023-12-20T10:20:27;2.20;;;1.07;;
14139;SDS011;7150;53.514;9.988;2023-12-20T10:22:57;2.33;;;1.00;;
14139;SDS011;7150;53.514;9.988;2023-12-20T10:25:23;1.97;;;1.00;;
14139;SDS011;7150;53.514;9.988;2023-12-20T10:27:49;2.57;;;1.17;;
14139;SDS011;7150;53.514;9.988;2023-12-20T10:30:33;1.30;;;0.70;;
14139;SDS011;7150;53.514;9.988;2023-12-20T10:32:58;2.37;;;0.80;;
14139;SDS011;7150;53.514;9.988;2023-12-20T10:35:24;2.03;;;0.90;;
14139;SDS011;7150;53.514;9.988;2023-12-20T10:37:50;1.63;;;0.70;;
14139;SDS011;7150;53.514;9.988;2023-12-20T10:40:19;2.37;;;0.90;;
14139;SDS011;7150;53.514;9.988;2023-12-20T10:42:44;4.23;;;1.40;;
14139;SDS011;7150;53.514;9.988;2023-12-20T10:45:10;1.03;;;0.83;;
14139;SDS011;7150;53.514;9.988;2023-12-20T10:47:35;3.20;;;1.10;;
14139;SDS011;7150;53.514;9.988;2023-12-20T10:50:02;2.63;;;1.00;;
14139;SDS011;7150;53.514;9.988;2023-12-20T10:52:30;3.47;;;1.07;;
14139;SDS011;7150;53.514;9.988;2023-12-20T10:54:59;5.93;;;1.10;;
14139;SDS011;7150;53.514;9.988;2023-12-20T10:57:25;4.57;;;1.13;;
14139;SDS011;7150;53.514;9.988;2023-12-20T10:59:53;4.10;;;1.27;;
14139;SDS011;7150;53.514;9.988;2023-12-20T11:02:20;2.83;;;1.33;;
14139;SDS011;7150;53.514;9.988;2023-12-20T11:04:55;6.63;;;1.20;;
14139;SDS011;7150;53.514;9.988;2023-12-20T11:07:30;4.40;;;1.20;;
14139;SDS011;7150;53.514;9.988;2023-12-20T11:15:42;4.03;;;1.23;;
14139;SDS011;7150;53.514;9.988;2023-12-20T11:18:08;5.07;;;1.17;;
14139;SDS011;7150;53.514;9.988;2023-12-20T11:20:38;4.17;;;1.20;;
14139;SDS011;7150;53.514;9.988;2023-12-20T11:23:05;2.67;;;1.20;;
14139;SDS011;7150;53.514;9.988;2023-12-20T11:25:47;3.13;;;1.17;;
14139;SDS011;7150;53.514;9.988;2023-12-20T11:28:21;6.63;;;1.60;;
14139;SDS011;7150;53.514;9.988;2023-12-20T11:30:53;7.17;;;1.57;;
14139;SDS011;7150;53.514;9.988;2023-12-20T11:33:23;6.80;;;1.57;;
14139;SDS011;7150;53.514;9.988;2023-12-20T11:35:50;10.93;;;1.60;;
14139;SDS011;7150;53.514;9.988;2023-12-20T11:38:16;2.97;;;1.17;;
14139;SDS011;7150;53.514;9.988;2023-12-20T11:40:42;9.07;;;2.10;;
14139;SDS011;7150;53.514;9.988;2023-12-20T11:43:08;8.83;;;1.57;;
14139;SDS011;7150;53.514;9.988;2023-12-20T11:45:35;7.97;;;2.00;;
14139;SDS011;7150;53.514;9.988;2023-12-20T11:48:01;9.70;;;2.10;;
14139;SDS011;7150;53.514;9.988;2023-12-20T11:50:27;6.20;;;2.00;;
14139;SDS011;7150;53.514;9.988;2023-12-20T11:52:55;8.17;;;1.70;;
14139;SDS011;7150;53.514;9.988;2023-12-20T11:55:21;5.70;;;1.70;;
14139;SDS011;7150;53.514;9.988;2023-12-20T11:57:47;6.50;;;1.87;;
14139;SDS011;7150;53.514;9.988;2023-12-20T12:00:13;9.63;;;2.00;;
14139;SDS011;7150;53.514;9.988;2023-12-20T12:02:39;9.20;;;1.90;;
14139;SDS011;7150;53.514;9.988;2023-12-20T12:05:05;9.93;;;1.87;;
14139;SDS011;7150;53.514;9.988;2023-12-20T12:07:31;6.93;;;1.60;;
14139;SDS011;7150;53.514;9.988;2023-12-20T12:09:59;13.00;;;1.90;;
14139;SDS011;7150;53.514;9.988;2023-12-20T12:12:24;8.73;;;1.83;;
14139;SDS011;7150;53.514;9.988;2023-12-20T12:14:51;7.77;;;1.70;;
14139;SDS011;7150;53.514;9.988;2023-12-20T12:17:17;10.33;;;1.70;;
14139;SDS011;7150;53.514;9.988;2023-12-20T12:19:43;5.70;;;2.43;;
14139;SDS011;7150;53.514;9.988;2023-12-20T12:22:15;8.80;;;2.00;;
14139;SDS011;7150;53.514;9.988;2023-12-20T12:24:44;7.17;;;2.00;;
14139;SDS011;7150;53.514;9.988;2023-12-20T12:27:12;8.03;;;1.90;;
14139;SDS011;7150;53.514;9.988;2023-12-20T12:29:38;4.23;;;1.73;;
14139;SDS011;7150;53.514;9.988;2023-12-20T12:32:04;8.63;;;1.90;;
14139;SDS011;7150;53.514;9.988;2023-12-20T12:34:34;7.20;;;1.90;;
14139;SDS011;7150;53.514;9.988;2023-12-20T12:37:00;13.97;;;2.23;;
14139;SDS011;7150;53.514;9.988;2023-12-20T12:39:26;11.47;;;1.90;;
14139;SDS011;7150;53.514;9.988;2023-12-20T12:41:52;6.93;;;1.90;;
14139;SDS011;7150;53.514;9.988;2023-12-20T12:44:18;6.70;;;2.10;;
14139;SDS011;7150;53.514;9.988;2023-12-20T12:46:45;8.90;;;2.00;;
14139;SDS011;7150;53.514;9.988;2023-12-20T12:49:11;7.60;;;2.20;;
14139;SDS011;7150;53.514;9.988;2023-12-20T12:51:37;6.60;;;2.00;;
14139;SDS011;7150;53.514;9.988;2023-12-20T12:54:02;7.70;;;1.90;;
14139;SDS011;7150;53.514;9.988;2023-12-20T12:56:28;8.90;;;2.10;;
14139;SDS011;7150;53.514;9.988;2023-12-20T12:58:54;9.33;;;2.10;;
14139;SDS011;7150;53.514;9.988;2023-12-20T13:01:20;8.60;;;2.13;;
14139;SDS011;7150;53.514;9.988;2023-12-20T13:03:45;10.80;;;2.87;;
14139;SDS011;7150;53.514;9.988;2023-12-20T13:06:11;10.00;;;3.00;;
14139;SDS011;7150;53.514;9.988;2023-12-20T13:08:37;7.63;;;2.00;;
14139;SDS011;7150;53.514;9.988;2023-12-20T13:11:03;8.80;;;2.17;;
14139;SDS011;7150;53.514;9.988;2023-12-20T13:13:29;9.53;;;2.40;;
14139;SDS011;7150;53.514;9.988;2023-12-20T13:15:55;9.73;;;2.17;;
14139;SDS011;7150;53.514;9.988;2023-12-20T13:18:21;10.00;;;2.40;;
14139;SDS011;7150;53.514;9.988;2023-12-20T13:20:47;10.43;;;2.50;;
14139;SDS011;7150;53.514;9.988;2023-12-20T13:23:13;10.30;;;2.23;;
14139;SDS011;7150;53.514;9.988;2023-12-20T13:25:39;8.53;;;2.63;;
14139;SDS011;7150;53.514;9.988;2023-12-20T13:28:05;8.43;;;1.90;;
14139;SDS011;7150;53.514;9.988;2023-12-20T13:30:31;9.67;;;2.77;;
14139;SDS011;7150;53.514;9.988;2023-12-20T13:32:56;8.50;;;2.17;;
14139;SDS011;7150;53.514;9.988;2023-12-20T13:35:22;7.33;;;2.17;;
14139;SDS011;7150;53.514;9.988;2023-12-20T13:37:47;9.23;;;2.20;;
14139;SDS011;7150;53.514;9.988;2023-12-20T13:40:13;11.30;;;2.40;;
14139;SDS011;7150;53.514;9.988;2023-12-20T13:42:39;8.67;;;2.33;;
14139;SDS011;7150;53.514;9.988;2023-12-20T13:45:05;10.53;;;2.73;;
14139;SDS011;7150;53.514;9.988;2023-12-20T13:47:32;9.30;;;2.13;;
14139;SDS011;7150;53.514;9.988;2023-12-20T13:49:57;11.23;;;2.80;;
14139;SDS011;7150;53.514;9.988;2023-12-20T13:52:23;9.67;;;2.63;;
14139;SDS011;7150;53.514;9.988;2023-12-20T13:54:48;13.73;;;2.40;;
14139;SDS011;7150;53.514;9.988;2023-12-20T13:57:14;15.97;;;3.03;;
14139;SDS011;7150;53.514;9.988;2023-12-20T13:59:40;12.47;;;2.70;;
14139;SDS011;7150;53.514;9.988;2023-12-20T14:02:05;11.50;;;3.00;;
14139;SDS011;7150;53.514;9.988;2023-12-20T14:04:31;19.23;;;3.50;;
14139;SDS011;7150;53.514;9.988;2023-12-20T14:06:57;11.07;;;3.23;;
14139;SDS011;7150;53.514;9.988;2023-12-20T14:09:22;13.40;;;3.37;;
14139;SDS011;7150;53.514;9.988;2023-12-20T14:11:48;13.33;;;3.23;;
14139;SDS011;7150;53.514;9.988;2023-12-20T14:14:13;10.13;;;3.00;;
14139;SDS011;7150;53.514;9.988;2023-12-20T14:16:39;12.83;;;3.00;;
14139;SDS011;7150;53.514;9.988;2023-12-20T14:19:04;13.63;;;3.30;;
14139;SDS011;7150;53.514;9.988;2023-12-20T14:21:32;9.23;;;2.87;;
14139;SDS011;7150;53.514;9.988;2023-12-20T14:23:58;13.67;;;2.97;;
14139;SDS011;7150;53.514;9.988;2023-12-20T14:26:24;8.80;;;2.67;;
14139;SDS011;7150;53.514;9.988;2023-12-20T14:28:49;15.43;;;3.73;;
14139;SDS011;7150;53.514;9.988;2023-12-20T14:31:15;9.77;;;2.90;;
14139;SDS011;7150;53.514;9.988;2023-12-20T14:33:40;12.43;;;2.93;;
14139;SDS011;7150;53.514;9.988;2023-12-20T14:36:07;10.33;;;2.77;;
14139;SDS011;7150;53.514;9.988;2023-12-20T14:38:33;14.87;;;3.37;;
14139;SDS011;7150;53.514;9.988;2023-12-20T14:40:58;16.07;;;3.33;;
14139;SDS011;7150;53.514;9.988;2023-12-20T14:43:25;10.33;;;3.57;;
14139;SDS011;7150;53.514;9.988;2023-12-20T14:45:51;10.73;;;3.07;;
14139;SDS011;7150;53.514;9.988;2023-12-20T14:48:17;12.23;;;4.07;;
14139;SDS011;7150;53.514;9.988;2023-12-20T14:50:43;9.17;;;2.80;;
14139;SDS011;7150;53.514;9.988;2023-12-20T14:53:09;16.53;;;3.70;;
14139;SDS011;7150;53.514;9.988;2023-12-20T14:55:34;8.63;;;3.17;;
14139;SDS011;7150;53.514;9.988;2023-12-20T14:58:00;10.40;;;3.00;;